createdAt,value
2023-05-08T00:00:42.360Z,12.30
2023-05-08T00:03:24.080Z,13.10
2023-05-08T00:05:56.980Z,15.30
2023-05-08T00:08:28.864Z,11.90
2023-05-08T00:11:00.794Z,13.20
2023-05-08T00:13:33.667Z,14.70
2023-05-08T00:16:05.732Z,13.30
2023-05-08T00:18:39.027Z,14.60
2023-05-08T00:21:11.446Z,13.10
2023-05-08T00:23:44.930Z,12.60
2023-05-08T00:26:16.889Z,13.80
2023-05-08T00:28:50.266Z,15.20
2023-05-08T00:31:22.516Z,16.30
2023-05-08T00:33:58.496Z,12.80
2023-05-08T00:36:32.770Z,14.60
2023-05-08T00:39:06.136Z,16.70
2023-05-08T00:41:39.024Z,16.90
2023-05-08T00:44:19.388Z,13.30
2023-05-08T00:46:51.841Z,13.90
2023-05-08T00:49:26.254Z,15.20
2023-05-08T00:51:59.922Z,17.60
2023-05-08T00:54:33.840Z,18.40
2023-05-08T00:57:09.388Z,18.70
2023-05-08T00:59:46.876Z,19.20
2023-05-08T01:02:18.751Z,19.20
2023-05-08T01:04:55.784Z,18.10
2023-05-08T01:07:29.002Z,19.90
2023-05-08T01:10:01.570Z,17.90
2023-05-08T01:12:46.744Z,15.20
2023-05-08T01:15:25.601Z,16.40
2023-05-08T01:18:12.446Z,14.60
2023-05-08T01:20:52.119Z,17.90
2023-05-08T01:23:56.806Z,13.70
2023-05-08T01:27:00.076Z,15.20
2023-05-08T01:29:51.929Z,14.30
2023-05-08T01:32:26.289Z,14.30
2023-05-08T01:35:11.036Z,12.90
2023-05-08T01:37:53.599Z,14.30
2023-05-08T01:40:36.731Z,12.50
2023-05-08T01:43:21.783Z,12.30
2023-05-08T01:45:55.957Z,12.80
2023-05-08T01:48:33.880Z,14.90
2023-05-08T01:51:12.950Z,14.10
2023-05-08T01:53:48.544Z,14.70
2023-05-08T01:56:29.013Z,15.10
2023-05-08T01:59:03.729Z,14.80
2023-05-08T02:01:38.799Z,15.10
2023-05-08T02:04:15.115Z,16.90
2023-05-08T02:06:49.229Z,14.50
2023-05-08T02:09:23.094Z,14.60
2023-05-08T02:11:55.833Z,15.00
2023-05-08T02:14:31.056Z,14.00
2023-05-08T02:17:06.152Z,14.60
2023-05-08T02:19:41.137Z,16.10
2023-05-08T02:22:14.840Z,17.80
2023-05-08T02:24:55.651Z,17.30
2023-05-08T02:27:31.684Z,18.60
2023-05-08T02:30:08.009Z,16.30
2023-05-08T02:32:43.010Z,16.30
2023-05-08T02:35:18.190Z,18.30
2023-05-08T02:37:53.810Z,18.00
2023-05-08T02:40:29.745Z,20.20
2023-05-08T02:43:02.358Z,18.30
2023-05-08T02:45:41.266Z,16.70
2023-05-08T02:48:21.100Z,17.80
2023-05-08T02:51:00.335Z,15.50
2023-05-08T02:53:38.413Z,16.40
2023-05-08T02:56:16.618Z,16.20
2023-05-08T02:58:58.076Z,19.30
2023-05-08T03:01:43.047Z,16.90
2023-05-08T03:04:22.058Z,17.50
2023-05-08T03:06:58.857Z,18.20
2023-05-08T03:09:39.968Z,19.20
2023-05-08T03:12:16.761Z,19.50
2023-05-08T03:14:58.793Z,18.60
2023-05-08T03:17:33.933Z,19.40
2023-05-08T03:20:09.528Z,18.00
2023-05-08T03:22:43.379Z,17.90
2023-05-08T03:25:20.114Z,21.80
2023-05-08T03:27:53.215Z,20.80
2023-05-08T03:30:28.455Z,20.50
2023-05-08T03:33:08.267Z,29.70
2023-05-08T03:35:39.717Z,22.80
2023-05-08T03:38:15.305Z,23.90
2023-05-08T03:40:48.890Z,22.00
2023-05-08T03:43:21.411Z,35.20
2023-05-08T03:45:55.622Z,31.40
2023-05-08T03:48:29.317Z,32.80
2023-05-08T03:51:06.674Z,22.70
2023-05-08T03:53:41.798Z,22.30
2023-05-08T03:56:13.786Z,21.40
2023-05-08T03:58:55.229Z,19.90
2023-05-08T04:01:33.638Z,19.00
2023-05-08T04:04:13.066Z,19.00
2023-05-08T04:06:50.906Z,18.10
2023-05-08T04:09:35.737Z,17.50
2023-05-08T04:12:10.929Z,18.30
2023-05-08T04:14:58.036Z,18.00
2023-05-08T04:17:56.750Z,18.50
2023-05-08T04:20:32.228Z,20.70
2023-05-08T04:23:07.962Z,22.20
2023-05-08T04:25:42.263Z,19.00
2023-05-08T04:28:16.009Z,19.30
2023-05-08T04:30:50.505Z,22.60
2023-05-08T04:33:23.616Z,19.70
2023-05-08T04:35:56.857Z,16.70
2023-05-08T04:38:28.589Z,18.60
2023-05-08T04:41:02.602Z,18.10
2023-05-08T04:43:35.249Z,18.20
2023-05-08T04:46:09.000Z,16.60
2023-05-08T04:48:42.626Z,16.20
2023-05-08T04:51:16.814Z,18.20
2023-05-08T04:53:49.171Z,17.40
2023-05-08T04:56:21.391Z,20.10
2023-05-08T04:58:53.827Z,21.50
2023-05-08T05:01:26.382Z,17.90
2023-05-08T05:04:03.155Z,20.80
2023-05-08T05:06:34.902Z,23.10
2023-05-08T05:09:08.556Z,21.50
2023-05-08T05:11:43.577Z,19.90
2023-05-08T05:14:14.643Z,23.40
2023-05-08T05:16:48.058Z,23.60
2023-05-08T05:19:20.282Z,22.70
2023-05-08T05:21:51.806Z,21.70
2023-05-08T05:24:24.529Z,22.80
2023-05-08T05:26:57.927Z,22.00
2023-05-08T05:29:31.045Z,22.30
2023-05-08T05:32:03.940Z,21.00
2023-05-08T05:34:40.183Z,19.50
2023-05-08T05:37:13.113Z,21.80
2023-05-08T05:39:45.876Z,20.70
2023-05-08T05:42:17.467Z,23.30
2023-05-08T05:44:50.305Z,23.30
2023-05-08T05:47:22.609Z,21.10
2023-05-08T05:49:55.518Z,20.20
2023-05-08T05:52:28.812Z,22.40
2023-05-08T05:55:03.520Z,20.80
2023-05-08T05:57:35.830Z,22.40
2023-05-08T06:00:14.380Z,15.80
2023-05-08T06:02:49.235Z,16.20
2023-05-08T06:05:23.300Z,13.50
2023-05-08T06:07:57.165Z,12.30
2023-05-08T06:10:30.452Z,7.40
2023-05-08T06:13:02.641Z,10.00
2023-05-08T06:15:35.777Z,7.40
2023-05-08T06:18:08.600Z,7.00
2023-05-08T06:20:40.386Z,9.20
2023-05-08T06:23:13.410Z,11.30
2023-05-08T06:25:45.942Z,9.70
2023-05-08T06:28:19.891Z,7.20
2023-05-08T06:30:59.221Z,8.30
2023-05-08T06:33:37.087Z,6.30
2023-05-08T06:36:12.971Z,5.40
2023-05-08T06:38:49.386Z,7.00
2023-05-08T06:41:22.899Z,6.70
2023-05-08T06:43:57.865Z,8.10
2023-05-08T06:46:31.378Z,10.20
2023-05-08T06:49:07.254Z,7.30
2023-05-08T06:51:43.881Z,7.30
2023-05-08T06:54:20.083Z,8.60
2023-05-08T06:56:56.287Z,11.60
2023-05-08T06:59:28.257Z,10.80
2023-05-08T07:02:01.840Z,8.60
2023-05-08T07:04:36.311Z,8.20
2023-05-08T07:07:08.596Z,7.40
2023-05-08T07:09:45.158Z,11.60
2023-05-08T07:12:18.864Z,9.40
2023-05-08T07:14:50.621Z,8.50
2023-05-08T07:17:30.590Z,8.20
2023-05-08T07:20:02.776Z,6.90
2023-05-08T07:22:36.230Z,7.00
2023-05-08T07:25:12.914Z,4.90
2023-05-08T07:27:45.973Z,5.90
2023-05-08T07:30:20.651Z,6.40
2023-05-08T07:32:55.150Z,6.40
2023-05-08T07:35:26.133Z,6.00
2023-05-08T07:37:58.926Z,5.70
2023-05-08T07:40:31.526Z,7.20
2023-05-08T07:43:04.623Z,7.00
2023-05-08T07:45:37.717Z,8.10
2023-05-08T07:48:10.470Z,4.70
2023-05-08T07:50:42.667Z,4.70
2023-05-08T07:53:17.177Z,4.90
2023-05-08T07:55:53.047Z,5.70
2023-05-08T07:58:25.184Z,5.10
2023-05-08T08:00:57.087Z,5.70
2023-05-08T08:03:27.747Z,4.70
2023-05-08T08:06:00.216Z,5.40
2023-05-08T08:08:33.804Z,6.80
2023-05-08T08:11:08.312Z,5.10
2023-05-08T08:13:40.027Z,6.00
2023-05-08T08:16:12.830Z,5.40
2023-05-08T08:18:47.668Z,6.40
2023-05-08T08:21:20.012Z,6.60
2023-05-08T08:23:52.283Z,7.80
2023-05-08T08:26:25.324Z,5.30
2023-05-08T08:28:57.644Z,11.00
2023-05-08T08:31:32.504Z,9.40
2023-05-08T08:34:04.753Z,7.70
2023-05-08T08:36:36.594Z,5.80
2023-05-08T08:39:12.501Z,6.50
2023-05-08T08:41:47.192Z,7.10
2023-05-08T08:44:19.840Z,8.50
2023-05-08T08:46:56.189Z,5.20
2023-05-08T08:49:32.322Z,6.10
2023-05-08T08:52:09.088Z,5.90
2023-05-08T08:54:47.522Z,8.20
2023-05-08T08:57:21.026Z,7.80
2023-05-08T08:59:54.022Z,6.90
2023-05-08T09:02:29.074Z,5.70
2023-05-08T09:05:02.420Z,5.50
2023-05-08T09:07:35.326Z,8.60
2023-05-08T09:10:16.591Z,9.30
2023-05-08T09:12:49.547Z,4.80
2023-05-08T09:15:25.036Z,6.90
2023-05-08T09:17:57.755Z,7.10
2023-05-08T09:20:30.082Z,7.10
2023-05-08T09:23:04.156Z,6.00
2023-05-08T09:25:48.544Z,8.20
2023-05-08T09:28:21.324Z,7.50
2023-05-08T09:30:56.191Z,5.70
2023-05-08T09:33:31.194Z,6.20
2023-05-08T09:36:04.192Z,6.70
2023-05-08T09:38:42.163Z,6.90
2023-05-08T09:41:17.067Z,6.00
2023-05-08T09:44:04.239Z,5.60
2023-05-08T09:46:38.283Z,5.30
2023-05-08T09:49:20.361Z,5.20
2023-05-08T09:51:56.388Z,4.20
2023-05-08T09:54:29.326Z,4.00
2023-05-08T09:57:01.984Z,4.90
2023-05-08T09:59:34.417Z,4.90
2023-05-08T10:02:15.865Z,7.20
2023-05-08T10:04:52.037Z,6.00
2023-05-08T10:07:33.162Z,4.40
2023-05-08T10:10:11.171Z,4.40
2023-05-08T10:12:45.162Z,5.70
2023-05-08T10:15:18.332Z,5.90
2023-05-08T10:17:57.001Z,6.40
2023-05-08T10:20:33.595Z,5.50
2023-05-08T10:23:11.141Z,5.80
2023-05-08T10:25:48.849Z,6.20
2023-05-08T10:28:29.947Z,4.90
2023-05-08T10:31:04.755Z,4.40
2023-05-08T10:33:41.469Z,6.40
2023-05-08T10:36:12.752Z,6.30
2023-05-08T10:38:48.507Z,7.00
2023-05-08T10:41:24.668Z,4.90
2023-05-08T10:44:00.681Z,4.40
2023-05-08T10:46:42.569Z,6.00
2023-05-08T10:49:24.271Z,4.00
2023-05-08T10:52:09.354Z,6.10
2023-05-08T10:55:06.264Z,8.80
2023-05-08T10:57:39.150Z,6.10
2023-05-08T11:00:11.819Z,7.30
2023-05-08T11:02:50.266Z,5.80
2023-05-08T11:05:24.521Z,7.10
2023-05-08T11:08:01.212Z,5.30
2023-05-08T11:10:37.170Z,4.50
2023-05-08T11:13:10.440Z,5.90
2023-05-08T11:15:51.330Z,9.30
2023-05-08T11:18:28.101Z,4.70
2023-05-08T11:21:14.566Z,11.70
2023-05-08T11:23:57.373Z,5.40
2023-05-08T11:26:42.037Z,13.20
2023-05-08T11:29:21.514Z,29.00
2023-05-08T11:31:55.375Z,18.20
2023-05-08T11:34:49.975Z,17.00
2023-05-08T11:37:24.606Z,21.40
2023-05-08T11:40:36.662Z,8.00
2023-05-08T11:43:27.427Z,11.30
2023-05-08T11:46:05.567Z,31.90
2023-05-08T11:48:38.416Z,27.60
2023-05-08T11:51:13.031Z,12.00
2023-05-08T11:53:47.682Z,11.90
2023-05-08T11:56:20.536Z,18.50
2023-05-08T11:59:04.790Z,9.70
2023-05-08T12:01:37.699Z,7.90
2023-05-08T12:04:11.259Z,4.90
2023-05-08T12:06:43.069Z,42.00
2023-05-08T12:09:18.354Z,6.00
2023-05-08T12:11:56.109Z,9.40
2023-05-08T12:14:28.787Z,7.20
2023-05-08T12:17:03.656Z,5.10
2023-05-08T12:19:37.434Z,4.10
2023-05-08T12:22:11.058Z,9.30
2023-05-08T12:24:45.331Z,4.40
2023-05-08T12:27:16.999Z,26.90
2023-05-08T12:29:49.070Z,36.80
2023-05-08T12:32:22.829Z,13.50
2023-05-08T12:34:55.568Z,17.20
2023-05-08T12:37:30.106Z,5.40
2023-05-08T12:40:03.656Z,8.20
2023-05-08T12:42:50.106Z,8.80
2023-05-08T12:45:23.072Z,6.90
2023-05-08T12:47:56.574Z,4.90
2023-05-08T12:50:31.077Z,4.70
2023-05-08T12:53:05.969Z,9.30
2023-05-08T12:55:45.190Z,9.20
2023-05-08T12:58:18.724Z,14.10
2023-05-08T13:00:53.877Z,5.90
2023-05-08T13:03:28.107Z,5.70
2023-05-08T13:06:02.168Z,5.00
2023-05-08T13:08:36.305Z,5.20
2023-05-08T13:11:08.855Z,5.20
2023-05-08T13:13:44.207Z,4.30
2023-05-08T13:16:15.754Z,4.90
2023-05-08T13:18:47.924Z,4.50
2023-05-08T13:21:19.970Z,4.70
2023-05-08T13:23:51.488Z,11.20
2023-05-08T13:26:25.767Z,8.50
2023-05-08T13:28:58.228Z,4.00
2023-05-08T13:31:30.390Z,4.30
2023-05-08T13:34:02.652Z,8.20
2023-05-08T13:36:35.102Z,4.50
2023-05-08T13:39:08.583Z,5.90
2023-05-08T13:41:41.246Z,6.20
2023-05-08T13:44:13.958Z,4.20
2023-05-08T13:46:47.119Z,4.50
2023-05-08T13:49:20.108Z,6.10
2023-05-08T13:51:57.280Z,4.70
2023-05-08T13:54:31.209Z,5.00
2023-05-08T13:57:04.281Z,5.10
2023-05-08T13:59:39.288Z,5.60
2023-05-08T14:02:14.201Z,5.90
2023-05-08T14:04:47.487Z,5.00
2023-05-08T14:07:19.985Z,6.30
2023-05-08T14:09:53.221Z,4.40
2023-05-08T14:12:24.533Z,4.10
2023-05-08T14:14:56.981Z,5.30
2023-05-08T14:17:30.631Z,4.30
2023-05-08T14:20:02.791Z,4.10
2023-05-08T14:22:34.427Z,3.90
2023-05-08T14:25:09.818Z,4.30
2023-05-08T14:27:46.666Z,6.80
2023-05-08T14:30:16.932Z,4.40
2023-05-08T14:32:56.085Z,5.00
2023-05-08T14:35:28.046Z,4.70
2023-05-08T14:38:01.055Z,5.00
2023-05-08T14:40:35.076Z,5.80
2023-05-08T14:43:07.731Z,4.80
2023-05-08T14:45:42.400Z,4.30
2023-05-08T14:48:17.152Z,5.20
2023-05-08T14:50:50.348Z,3.90
2023-05-08T14:53:22.765Z,7.00
2023-05-08T14:55:52.811Z,3.90
2023-05-08T14:58:25.384Z,5.80
2023-05-08T15:00:57.034Z,4.50
2023-05-08T15:03:30.207Z,7.20
2023-05-08T15:06:01.875Z,7.30
2023-05-08T15:08:34.980Z,8.10
2023-05-08T15:11:10.353Z,5.60
2023-05-08T15:13:47.629Z,25.30
2023-05-08T15:16:19.613Z,24.20
2023-05-08T15:18:52.508Z,23.80
2023-05-08T15:21:27.898Z,6.20
2023-05-08T15:24:02.631Z,5.80
2023-05-08T15:26:34.993Z,5.00
2023-05-08T15:29:06.798Z,5.70
2023-05-08T15:31:40.539Z,31.90
2023-05-08T15:34:13.544Z,10.80
2023-05-08T15:36:45.512Z,9.60
2023-05-08T15:39:18.676Z,8.00
2023-05-08T15:41:54.897Z,10.40
2023-05-08T15:44:28.693Z,24.10
2023-05-08T15:47:06.952Z,61.60
2023-05-08T15:49:36.901Z,64.10
2023-05-08T15:52:08.394Z,26.10
2023-05-08T15:54:43.806Z,7.00
2023-05-08T15:57:16.785Z,5.60
2023-05-08T15:59:50.048Z,5.70
2023-05-08T16:02:25.052Z,5.80
2023-05-08T16:04:57.855Z,8.00
2023-05-08T16:07:38.012Z,7.40
2023-05-08T16:10:16.534Z,4.60
2023-05-08T16:12:49.917Z,5.90
2023-05-08T16:15:21.388Z,6.60
2023-05-08T16:17:52.976Z,6.40
2023-05-08T16:20:27.307Z,7.10
2023-05-08T16:23:07.041Z,6.80
2023-05-08T16:25:38.657Z,11.90
2023-05-08T16:28:11.338Z,9.80
2023-05-08T16:30:45.036Z,7.20
2023-05-08T16:33:16.576Z,5.10
2023-05-08T16:35:50.542Z,6.00
2023-05-08T16:38:24.396Z,5.00
2023-05-08T16:40:56.010Z,4.40
2023-05-08T16:43:27.772Z,4.70
2023-05-08T16:46:01.062Z,4.10
2023-05-08T16:48:33.636Z,5.80
2023-05-08T16:51:09.361Z,5.40
2023-05-08T16:53:43.484Z,4.60
2023-05-08T16:56:17.712Z,5.00
2023-05-08T16:58:51.192Z,5.30
2023-05-08T17:01:23.878Z,6.30
2023-05-08T17:03:56.986Z,7.20
2023-05-08T17:06:29.542Z,7.70
2023-05-08T17:09:01.611Z,5.50
2023-05-08T17:11:34.128Z,7.00
2023-05-08T17:14:10.621Z,4.90
2023-05-08T17:16:48.137Z,5.00
2023-05-08T17:19:19.313Z,5.20
2023-05-08T17:21:52.940Z,4.30
2023-05-08T17:24:26.406Z,6.90
2023-05-08T17:26:59.494Z,6.00
2023-05-08T17:29:31.345Z,6.10
2023-05-08T17:32:06.895Z,5.00
2023-05-08T17:34:39.267Z,6.40
2023-05-08T17:37:19.632Z,5.30
2023-05-08T17:39:50.452Z,5.30
2023-05-08T17:42:22.030Z,6.90
2023-05-08T17:44:55.734Z,5.40
2023-05-08T17:47:27.591Z,5.80
2023-05-08T17:50:01.015Z,6.60
2023-05-08T17:52:39.468Z,7.80
2023-05-08T17:55:14.606Z,5.90
2023-05-08T17:57:49.473Z,8.00
2023-05-08T18:00:29.861Z,6.50
2023-05-08T18:03:03.841Z,5.60
2023-05-08T18:05:36.438Z,8.80
2023-05-08T18:08:09.628Z,5.00
2023-05-08T18:10:40.742Z,6.10
2023-05-08T18:13:12.714Z,7.40
2023-05-08T18:15:44.799Z,6.80
2023-05-08T18:18:20.154Z,5.90
2023-05-08T18:20:55.719Z,6.40
2023-05-08T18:23:26.638Z,7.00
2023-05-08T18:25:59.863Z,9.90
2023-05-08T18:28:31.637Z,10.20
2023-05-08T18:31:06.384Z,10.10
2023-05-08T18:33:41.792Z,10.00
2023-05-08T18:36:15.840Z,7.00
2023-05-08T18:38:57.351Z,8.40
2023-05-08T18:41:33.246Z,10.20
2023-05-08T18:44:11.171Z,9.80
2023-05-08T18:46:43.490Z,6.20
2023-05-08T18:49:17.109Z,6.70
2023-05-08T18:51:47.185Z,8.80
2023-05-08T18:54:20.469Z,6.10
2023-05-08T18:56:55.602Z,6.80
2023-05-08T18:59:35.857Z,6.70
2023-05-08T19:02:09.855Z,7.90
2023-05-08T19:04:41.272Z,8.00
2023-05-08T19:07:15.339Z,11.40
2023-05-08T19:09:48.789Z,10.20
2023-05-08T19:12:22.438Z,7.00
2023-05-08T19:14:55.366Z,7.50
2023-05-08T19:17:28.881Z,9.40
2023-05-08T19:20:10.072Z,8.10
2023-05-08T19:22:48.157Z,8.60
2023-05-08T19:25:21.633Z,8.70
2023-05-08T19:27:56.841Z,8.30
2023-05-08T19:30:27.165Z,13.20
2023-05-08T19:33:11.012Z,17.10
2023-05-08T19:35:43.283Z,17.20
2023-05-08T19:38:16.731Z,18.20
2023-05-08T19:40:57.315Z,14.50
2023-05-08T19:43:31.281Z,11.90
2023-05-08T19:46:08.738Z,13.10
2023-05-08T19:48:40.895Z,11.90
2023-05-08T19:51:17.250Z,12.60
2023-05-08T19:53:51.369Z,14.40
2023-05-08T19:56:23.869Z,11.90
2023-05-08T19:59:06.798Z,13.50
2023-05-08T20:01:39.290Z,13.40
2023-05-08T20:04:12.182Z,14.40
2023-05-08T20:06:51.302Z,12.90
2023-05-08T20:09:23.046Z,12.40
2023-05-08T20:12:01.688Z,13.70
2023-05-08T20:14:33.662Z,15.00
2023-05-08T20:17:10.553Z,13.60
2023-05-08T20:19:42.459Z,12.70
2023-05-08T20:22:15.877Z,13.70
2023-05-08T20:24:48.387Z,11.50
2023-05-08T20:27:21.877Z,12.30
2023-05-08T20:29:53.874Z,11.30
2023-05-08T20:32:30.548Z,11.10
2023-05-08T20:35:03.598Z,13.00
2023-05-08T20:37:34.695Z,10.50
2023-05-08T20:40:12.756Z,11.70
2023-05-08T20:42:47.418Z,11.20
2023-05-08T20:45:21.676Z,13.00
2023-05-08T20:47:53.587Z,11.70
2023-05-08T20:50:32.826Z,14.50
2023-05-08T20:53:12.866Z,12.40
2023-05-08T20:55:46.112Z,13.50
2023-05-08T20:58:17.475Z,14.20
2023-05-08T21:00:52.916Z,11.70
2023-05-08T21:03:26.296Z,12.90
2023-05-08T21:05:57.430Z,14.60
2023-05-08T21:08:30.176Z,13.30
2023-05-08T21:11:38.214Z,14.40
2023-05-08T21:14:19.353Z,15.60
2023-05-08T21:16:53.371Z,15.50
2023-05-08T21:19:29.901Z,15.90
2023-05-08T21:22:03.464Z,16.30
2023-05-08T21:24:38.743Z,18.30
2023-05-08T21:27:11.980Z,18.00
2023-05-08T21:29:45.198Z,16.50
2023-05-08T21:32:17.275Z,17.20
2023-05-08T21:34:49.395Z,19.50
2023-05-08T21:37:21.477Z,16.60
2023-05-08T21:39:56.829Z,21.60
2023-05-08T21:42:46.072Z,15.50
2023-05-08T21:45:19.220Z,16.10
2023-05-08T21:47:55.262Z,16.20
2023-05-08T21:50:28.689Z,15.00
2023-05-08T21:53:03.898Z,17.00
2023-05-08T21:55:39.423Z,16.30
2023-05-08T21:58:13.429Z,17.50
2023-05-08T22:00:43.979Z,19.40
2023-05-08T22:03:18.896Z,16.10
2023-05-08T22:05:53.110Z,18.30
2023-05-08T22:08:27.370Z,19.10
2023-05-08T22:11:00.049Z,18.90
2023-05-08T22:13:32.448Z,18.80
2023-05-08T22:16:05.388Z,19.10
2023-05-08T22:18:43.343Z,18.30
2023-05-08T22:21:16.219Z,17.50
2023-05-08T22:23:52.065Z,18.80
2023-05-08T22:26:31.734Z,20.80
2023-05-08T22:29:05.685Z,19.10
2023-05-08T22:31:40.191Z,16.80
2023-05-08T22:34:21.444Z,19.00
2023-05-08T22:36:58.212Z,17.20
2023-05-08T22:39:28.857Z,21.30
2023-05-08T22:42:09.146Z,17.10
2023-05-08T22:45:43.981Z,16.80
2023-05-08T22:48:25.268Z,18.70
2023-05-08T22:51:12.316Z,18.30
2023-05-08T22:53:46.152Z,18.70
2023-05-08T22:56:18.970Z,18.40
2023-05-08T22:58:54.662Z,19.80
2023-05-08T23:01:28.028Z,19.20
2023-05-08T23:03:59.492Z,17.80
2023-05-08T23:06:33.523Z,19.80
2023-05-08T23:09:07.308Z,18.80
2023-05-08T23:11:40.569Z,21.40
2023-05-08T23:14:12.856Z,19.60
2023-05-08T23:16:46.210Z,22.00
2023-05-08T23:19:18.829Z,25.80
2023-05-08T23:21:53.968Z,30.00
2023-05-08T23:24:35.399Z,26.70
2023-05-08T23:27:08.297Z,25.70
2023-05-08T23:29:39.902Z,30.20
2023-05-08T23:32:13.826Z,27.40
2023-05-08T23:34:46.763Z,29.00
2023-05-08T23:37:19.189Z,28.00
2023-05-08T23:39:49.687Z,26.20
2023-05-08T23:42:22.910Z,25.10
2023-05-08T23:44:56.295Z,24.70
2023-05-08T23:47:28.599Z,24.30
2023-05-08T23:50:03.341Z,29.00
2023-05-08T23:52:36.431Z,25.10
2023-05-08T23:55:14.534Z,22.60
2023-05-08T23:57:47.027Z,24.60
